Meyersdale, PA (15552)

4:35 AM EDT on September 04, 2015 (GMT -0400)
Highpoint | | Change Station
CLOSE
Current Station
Personal Weather Station
Location: Salisbury, PA
Elevation: 2293 ft
Nearby Weather Stations

Elev 2293 ft 39.78 °N, 79.10 °W | Updated 25 seconds ago

Clear
Clear
61.0 °F
Feels Like 61.0 °F
N
0.0
Wind Variable Wind from SW
Gusts 0.0 mph

Today
High -- | Low -- °F
--% Chance of Precip.
Yesterday
High -- | Low -- °F
Precip. -- in
6:46 AM 7:43 PM
Waning Gibbous, 61% visible
Pressure 30.03 in
Visibility 1.2 miles
Clouds Mostly Cloudy 100 ft
Mostly Cloudy 8000 ft
Dew Point 60 °F
Humidity 98%
Rainfall 0.00 in
Snow Depth Not available.
UV 0 out of 12
Pollen 10.00 out of 12
Air Quality Not available.
Flu Activity Not available.
METAR KCBE 040827Z AUTO 07003KT 1 1/4SM BKN001 BKN080 20/20 A3003 RMK AO1
Pressure 30.03 in
Visibility 1.2 miles
Clouds Mostly Cloudy 100 ft
Mostly Cloudy 8000 ft
Dew Point 60 °F
Humidity 98%
Rainfall 0.00 in
Snow Depth Not available.
UV 0 out of 12
Pollen 10.00 out of 12
Air Quality Not available.
Flu Activity Not available.
METAR KCBE 040827Z AUTO 07003KT 1 1/4SM BKN001 BKN080 20/20 A3003 RMK AO1

10-Day Weather Forecast

×

Almanac

Astronomy

Sep. 04, 2015 Rise Set
Actual Time
Civil Twilight
Nautical Twilight
Astronomical Twilight
Moon
Length of Visible Light
Length of Day
Tomorrow will be .
, % of the Moon is Illuminated

Today's Extremes

State Highs State Lows

Community

WunderPhotos

Upload Photos

1,852,141 photos uploaded!

WunderBlogs® & News

Nearby

Air Quality

  Air Quality AQ Index Pollutant
Not available.

Snow Depth

Station Depth Elevation

Earthquake Activity

City Distance Mag. Time & Date
Minimum magnitude displayed is 2.5.

Coastal Water Temperatures

Place Temperature

Stations

Nearby Weather Stations

Station Location Temp. Windchill Dew Point Humidity Wind Precip. Elev Updated Type